Main page
METAR-TAF:

METAR-TAF

Airports :

Kulob Airport

Kulob, Tajikistan

latitude: 37-59-18N, longitude: 069-48-18E, elevation: 699 m

Current weather observation

The report was made 39 minutes ago, at 21:30 UTC
Calm wind
Temperature 1°C
Humidity 69%
Pressure 1021 hPa
Visibility 10 km or more
Scattered clouds at a height of 13000 ft

METAR: UTDK 222130Z 00000MPS 9999 SCT130 01/M04 Q1021 R01/09//70 RMK QFE708/0944

Time: 03:09 (22:09 UTC)

Forecast

The report was made 1 hour and 9 minutes ago, at 21:00 UTC
Forecast valid from 22 at 22 UTC to 23 at 07 UTC
Wind 4 kt from variable directions
Visibility: 6000 m
Scattered clouds at a height of 6000 ft
Broken clouds at a height of 10000 ft
Temporary
from 22 at 22 UTC to 23 at 04 UTC
Wind 10 kt from the North/Northeast
Visibility: 3100 m
mist

TAF: UTDK 222100Z 2222/2307 VRB02MPS 6000 SCT060 BKN100 TEMPO 2222/2304 03005MPS 3100 BR

Weather observations and forecasts of more than 4000 airports (METAR and TAF reports).

The available stations are represented by yellow and red dots on the map.

Hover mouse over dot to see the name of the station.

Then click to see weather observations and forecasts.

To change the map : click on the green buttons with a black cross to zoom in, on the green button with a dash to zoom out, or on the green arrows for adjacent maps.


METAR-TAF: